sensor_id;sensor_type;location;lat;lon;timestamp;pressure;altitude;pressure_sealevel;temperature;humidity
30339;BME280;795;49.296;11.348;2023-05-27T00:00:11;97130.31;;;13.58;79.58
30339;BME280;795;49.296;11.348;2023-05-27T00:02:39;97075.72;;;13.24;78.67
30339;BME280;795;49.296;11.348;2023-05-27T00:05:06;97115.31;;;13.48;77.11
30339;BME280;795;49.296;11.348;2023-05-27T00:07:34;97129.97;;;13.53;77.38
30339;BME280;795;49.296;11.348;2023-05-27T00:10:01;97060.38;;;13.16;77.50
30339;BME280;795;49.296;11.348;2023-05-27T00:12:28;97045.91;;;13.09;77.48
30339;BME280;795;49.296;11.348;2023-05-27T00:14:55;97128.09;;;13.62;76.81
30339;BME280;795;49.296;11.348;2023-05-27T00:17:22;97050.06;;;13.04;77.36
30339;BME280;795;49.296;11.348;2023-05-27T00:19:51;97130.31;;;13.50;77.77
30339;BME280;795;49.296;11.348;2023-05-27T00:22:18;97130.50;;;13.49;77.11
30339;BME280;795;49.296;11.348;2023-05-27T00:24:45;97108.06;;;13.24;77.17
30339;BME280;795;49.296;11.348;2023-05-27T00:27:12;97119.38;;;13.36;78.77
30339;BME280;795;49.296;11.348;2023-05-27T00:29:39;97070.13;;;13.01;77.97
30339;BME280;795;49.296;11.348;2023-05-27T00:32:06;97126.97;;;13.32;77.26
30339;BME280;795;49.296;11.348;2023-05-27T00:34:33;97135.38;;;13.29;77.76
30339;BME280;795;49.296;11.348;2023-05-27T00:37:01;97122.22;;;13.26;77.96
30339;BME280;795;49.296;11.348;2023-05-27T00:39:29;97127.28;;;13.21;78.42
30339;BME280;795;49.296;11.348;2023-05-27T00:41:56;97116.00;;;13.09;78.30
30339;BME280;795;49.296;11.348;2023-05-27T00:44:24;97055.44;;;12.72;77.61
30339;BME280;795;49.296;11.348;2023-05-27T00:46:51;97120.72;;;13.23;76.64
30339;BME280;795;49.296;11.348;2023-05-27T00:49:18;97122.91;;;13.28;76.15
30339;BME280;795;49.296;11.348;2023-05-27T00:51:46;97097.44;;;13.22;75.65
30339;BME280;795;49.296;11.348;2023-05-27T00:54:13;97104.34;;;13.25;75.59
30339;BME280;795;49.296;11.348;2023-05-27T00:56:40;97112.13;;;13.28;75.67
30339;BME280;795;49.296;11.348;2023-05-27T00:59:07;97113.63;;;13.30;75.25
30339;BME280;795;49.296;11.348;2023-05-27T01:01:34;96918.38;;;12.20;74.08
30339;BME280;795;49.296;11.348;2023-05-27T01:04:05;97042.31;;;12.85;74.71
30339;BME280;795;49.296;11.348;2023-05-27T01:09:51;97098.47;;;13.29;72.69
30339;BME280;795;49.296;11.348;2023-05-27T01:15:15;97092.25;;;13.29;71.15
30339;BME280;795;49.296;11.348;2023-05-27T01:17:47;97094.59;;;13.24;70.90
30339;BME280;795;49.296;11.348;2023-05-27T01:20:15;97004.94;;;12.74;69.72
30339;BME280;795;49.296;11.348;2023-05-27T01:22:44;97003.25;;;12.73;70.02
30339;BME280;795;49.296;11.348;2023-05-27T01:25:11;97087.16;;;13.18;69.88
30339;BME280;795;49.296;11.348;2023-05-27T01:27:38;97087.00;;;13.19;69.02
30339;BME280;795;49.296;11.348;2023-05-27T01:30:08;97080.44;;;13.06;69.69
30339;BME280;795;49.296;11.348;2023-05-27T01:32:58;97086.13;;;12.95;69.68
30339;BME280;795;49.296;11.348;2023-05-27T01:35:46;97090.53;;;12.96;70.19
30339;BME280;795;49.296;11.348;2023-05-27T01:38:21;97068.94;;;12.88;69.47
30339;BME280;795;49.296;11.348;2023-05-27T01:40:51;97004.56;;;12.36;69.47
30339;BME280;795;49.296;11.348;2023-05-27T01:43:19;97088.66;;;12.88;69.20
30339;BME280;795;49.296;11.348;2023-05-27T01:45:47;97004.22;;;12.39;69.38
30339;BME280;795;49.296;11.348;2023-05-27T01:48:15;97075.84;;;12.82;69.73
30339;BME280;795;49.296;11.348;2023-05-27T01:50:42;97076.84;;;12.81;69.99
30339;BME280;795;49.296;11.348;2023-05-27T01:53:09;97091.50;;;12.79;69.79
30339;BME280;795;49.296;11.348;2023-05-27T01:55:38;97083.56;;;12.77;69.51
30339;BME280;795;49.296;11.348;2023-05-27T01:58:05;97088.47;;;12.74;69.57
30339;BME280;795;49.296;11.348;2023-05-27T02:00:32;97087.63;;;12.73;69.67
30339;BME280;795;49.296;11.348;2023-05-27T02:02:59;97091.66;;;12.69;70.03
30339;BME280;795;49.296;11.348;2023-05-27T02:05:26;97005.16;;;12.14;70.46
30339;BME280;795;49.296;11.348;2023-05-27T02:07:53;97077.34;;;12.69;68.17
30339;BME280;795;49.296;11.348;2023-05-27T02:10:20;96883.03;;;11.49;68.64
30339;BME280;795;49.296;11.348;2023-05-27T02:12:47;97077.47;;;12.67;68.23
30339;BME280;795;49.296;11.348;2023-05-27T02:15:15;97036.69;;;12.30;69.13
30339;BME280;795;49.296;11.348;2023-05-27T02:17:42;97077.63;;;12.57;68.68
30339;BME280;795;49.296;11.348;2023-05-27T02:20:12;97075.28;;;12.62;67.93
30339;BME280;795;49.296;11.348;2023-05-27T02:22:39;97086.25;;;12.61;67.45
30339;BME280;795;49.296;11.348;2023-05-27T02:25:07;97085.41;;;12.60;67.63
30339;BME280;795;49.296;11.348;2023-05-27T02:27:34;97073.94;;;12.58;68.01
30339;BME280;795;49.296;11.348;2023-05-27T02:30:01;97077.84;;;12.64;66.74
30339;BME280;795;49.296;11.348;2023-05-27T02:32:28;97068.88;;;12.55;67.84
30339;BME280;795;49.296;11.348;2023-05-27T02:34:55;97065.53;;;12.61;65.90
30339;BME280;795;49.296;11.348;2023-05-27T02:37:22;97076.66;;;12.67;65.42
30339;BME280;795;49.296;11.348;2023-05-27T02:39:53;97037.72;;;12.37;65.30
30339;BME280;795;49.296;11.348;2023-05-27T02:42:21;97057.63;;;12.52;65.05
30339;BME280;795;49.296;11.348;2023-05-27T02:44:48;97072.41;;;12.48;65.12
30339;BME280;795;49.296;11.348;2023-05-27T02:47:15;97070.38;;;12.42;65.07
30339;BME280;795;49.296;11.348;2023-05-27T02:49:42;97064.78;;;12.27;65.44
30339;BME280;795;49.296;11.348;2023-05-27T02:52:09;97079.94;;;12.36;64.94
30339;BME280;795;49.296;11.348;2023-05-27T02:54:36;97002.41;;;11.90;64.73
30339;BME280;795;49.296;11.348;2023-05-27T02:57:04;97080.25;;;12.33;65.03
30339;BME280;795;49.296;11.348;2023-05-27T02:59:31;97074.88;;;12.33;65.30
30339;BME280;795;49.296;11.348;2023-05-27T03:01:58;97005.94;;;11.90;64.28
30339;BME280;795;49.296;11.348;2023-05-27T03:04:25;97081.91;;;12.18;65.69
30339;BME280;795;49.296;11.348;2023-05-27T03:06:51;97063.88;;;12.11;65.92
30339;BME280;795;49.296;11.348;2023-05-27T03:09:18;97043.28;;;11.93;66.50
30339;BME280;795;49.296;11.348;2023-05-27T03:11:47;97070.22;;;12.02;66.86
30339;BME280;795;49.296;11.348;2023-05-27T03:14:14;97069.97;;;11.87;67.39
30339;BME280;795;49.296;11.348;2023-05-27T03:16:41;97066.97;;;11.90;67.91
30339;BME280;795;49.296;11.348;2023-05-27T03:19:08;97070.16;;;11.85;67.61
30339;BME280;795;49.296;11.348;2023-05-27T03:21:35;97066.41;;;11.78;68.94
30339;BME280;795;49.296;11.348;2023-05-27T03:24:02;97074.81;;;11.75;69.71
30339;BME280;795;49.296;11.348;2023-05-27T03:26:29;97074.81;;;11.58;70.33
30339;BME280;795;49.296;11.348;2023-05-27T03:28:56;97065.09;;;11.57;70.61
30339;BME280;795;49.296;11.348;2023-05-27T03:31:23;97077.50;;;11.58;70.48
30339;BME280;795;49.296;11.348;2023-05-27T03:33:50;97073.34;;;11.63;69.88
30339;BME280;795;49.296;11.348;2023-05-27T03:36:17;97067.09;;;11.55;70.92
30339;BME280;795;49.296;11.348;2023-05-27T03:38:44;97072.13;;;11.58;71.23
30339;BME280;795;49.296;11.348;2023-05-27T03:41:11;97073.16;;;11.57;72.07
30339;BME280;795;49.296;11.348;2023-05-27T03:43:38;97065.78;;;11.59;71.16
30339;BME280;795;49.296;11.348;2023-05-27T03:46:06;97019.53;;;11.29;70.11
30339;BME280;795;49.296;11.348;2023-05-27T03:48:34;97078.47;;;11.49;70.93
30339;BME280;795;49.296;11.348;2023-05-27T03:51:01;97069.72;;;11.47;70.84
30339;BME280;795;49.296;11.348;2023-05-27T03:53:28;97070.28;;;11.50;71.32
30339;BME280;795;49.296;11.348;2023-05-27T03:55:54;97082.50;;;11.45;74.43
30339;BME280;795;49.296;11.348;2023-05-27T03:58:22;97079.38;;;11.31;75.19
30339;BME280;795;49.296;11.348;2023-05-27T04:00:49;97080.91;;;11.34;72.63
30339;BME280;795;49.296;11.348;2023-05-27T04:03:16;97084.53;;;11.25;73.90
30339;BME280;795;49.296;11.348;2023-05-27T04:05:43;97090.59;;;11.27;75.14
30339;BME280;795;49.296;11.348;2023-05-27T04:08:10;97087.75;;;11.28;75.17
30339;BME280;795;49.296;11.348;2023-05-27T04:10:40;97069.66;;;11.13;77.29
30339;BME280;795;49.296;11.348;2023-05-27T04:13:06;97088.38;;;11.22;76.58
30339;BME280;795;49.296;11.348;2023-05-27T04:15:34;97076.16;;;11.28;77.12
30339;BME280;795;49.296;11.348;2023-05-27T04:18:01;97083.22;;;11.29;77.42
30339;BME280;795;49.296;11.348;2023-05-27T04:20:40;97081.69;;;11.26;77.26
30339;BME280;795;49.296;11.348;2023-05-27T04:23:10;97086.91;;;11.28;74.19
30339;BME280;795;49.296;11.348;2023-05-27T04:25:37;97069.47;;;11.32;74.83
30339;BME280;795;49.296;11.348;2023-05-27T04:28:06;97070.47;;;11.31;72.45
30339;BME280;795;49.296;11.348;2023-05-27T04:30:35;97104.38;;;11.50;74.14
30339;BME280;795;49.296;11.348;2023-05-27T04:33:03;97089.28;;;11.74;70.37
30339;BME280;795;49.296;11.348;2023-05-27T04:35:30;97088.00;;;11.86;68.03
30339;BME280;795;49.296;11.348;2023-05-27T04:37:58;97090.81;;;11.85;69.05
30339;BME280;795;49.296;11.348;2023-05-27T04:40:28;97094.91;;;11.97;68.56
30339;BME280;795;49.296;11.348;2023-05-27T04:43:00;97082.88;;;12.09;67.93
30339;BME280;795;49.296;11.348;2023-05-27T04:45:27;97063.31;;;11.99;66.72
30339;BME280;795;49.296;11.348;2023-05-27T04:47:56;97095.03;;;12.21;66.89
30339;BME280;795;49.296;11.348;2023-05-27T04:50:24;97103.69;;;12.33;65.96
30339;BME280;795;49.296;11.348;2023-05-27T04:52:51;97008.09;;;11.79;65.62
30339;BME280;795;49.296;11.348;2023-05-27T04:55:20;97088.19;;;12.35;65.76
30339;BME280;795;49.296;11.348;2023-05-27T04:57:47;97082.81;;;12.43;64.54
30339;BME280;795;49.296;11.348;2023-05-27T05:00:14;97052.63;;;12.23;65.21
30339;BME280;795;49.296;11.348;2023-05-27T05:02:49;97013.06;;;12.08;63.47
30339;BME280;795;49.296;11.348;2023-05-27T05:05:27;97035.81;;;12.21;64.06
30339;BME280;795;49.296;11.348;2023-05-27T05:07:55;97084.41;;;12.61;63.06
30339;BME280;795;49.296;11.348;2023-05-27T05:10:22;97088.59;;;12.72;62.40
30339;BME280;795;49.296;11.348;2023-05-27T05:12:49;97086.94;;;12.79;62.86
30339;BME280;795;49.296;11.348;2023-05-27T05:15:16;97022.75;;;12.50;61.44
30339;BME280;795;49.296;11.348;2023-05-27T05:17:43;97044.34;;;12.67;61.44
30339;BME280;795;49.296;11.348;2023-05-27T05:20:12;97046.34;;;12.73;61.86
30339;BME280;795;49.296;11.348;2023-05-27T05:22:39;97097.13;;;13.09;62.07
30339;BME280;795;49.296;11.348;2023-05-27T05:25:06;97090.69;;;13.10;61.31
30339;BME280;795;49.296;11.348;2023-05-27T05:27:33;97100.31;;;13.21;60.34
30339;BME280;795;49.296;11.348;2023-05-27T05:30:01;97103.34;;;13.58;59.62
30339;BME280;795;49.296;11.348;2023-05-27T05:32:28;96972.41;;;13.23;58.54
30339;BME280;795;49.296;11.348;2023-05-27T05:34:54;97096.19;;;14.36;56.80
30339;BME280;795;49.296;11.348;2023-05-27T05:37:21;97105.66;;;14.40;57.18
30339;BME280;795;49.296;11.348;2023-05-27T05:39:48;97101.38;;;14.54;57.07
30339;BME280;795;49.296;11.348;2023-05-27T05:42:15;97095.69;;;14.72;55.76
30339;BME280;795;49.296;11.348;2023-05-27T05:44:43;97087.78;;;14.70;54.49
30339;BME280;795;49.296;11.348;2023-05-27T05:47:09;97085.75;;;14.72;54.94
30339;BME280;795;49.296;11.348;2023-05-27T05:49:36;97101.06;;;14.80;54.50
30339;BME280;795;49.296;11.348;2023-05-27T05:52:04;97056.31;;;14.77;54.04
30339;BME280;795;49.296;11.348;2023-05-27T05:54:31;97099.97;;;15.11;54.47
30339;BME280;795;49.296;11.348;2023-05-27T05:57:00;97101.38;;;15.30;53.38
30339;BME280;795;49.296;11.348;2023-05-27T05:59:28;97098.38;;;15.25;53.14
30339;BME280;795;49.296;11.348;2023-05-27T06:01:55;97021.09;;;14.85;53.78
30339;BME280;795;49.296;11.348;2023-05-27T06:04:22;97106.81;;;15.67;52.72
30339;BME280;795;49.296;11.348;2023-05-27T06:06:49;97104.84;;;15.61;52.63
30339;BME280;795;49.296;11.348;2023-05-27T06:09:16;97103.13;;;15.46;52.48
30339;BME280;795;49.296;11.348;2023-05-27T06:11:43;97102.50;;;15.58;52.79
30339;BME280;795;49.296;11.348;2023-05-27T06:14:11;97017.38;;;15.09;52.75
30339;BME280;795;49.296;11.348;2023-05-27T06:16:38;97116.66;;;15.83;52.13
30339;BME280;795;49.296;11.348;2023-05-27T06:19:06;97115.63;;;15.69;52.54
30339;BME280;795;49.296;11.348;2023-05-27T06:21:33;97109.34;;;15.69;52.90
30339;BME280;795;49.296;11.348;2023-05-27T06:24:00;97118.22;;;15.77;52.79
30339;BME280;795;49.296;11.348;2023-05-27T06:26:27;97051.38;;;15.03;53.03
30339;BME280;795;49.296;11.348;2023-05-27T06:28:54;97113.19;;;15.89;52.83
30339;BME280;795;49.296;11.348;2023-05-27T06:31:21;97123.22;;;15.88;52.59
30339;BME280;795;49.296;11.348;2023-05-27T06:33:48;97124.34;;;16.09;52.59
30339;BME280;795;49.296;11.348;2023-05-27T06:36:15;97118.84;;;16.31;51.52
30339;BME280;795;49.296;11.348;2023-05-27T06:38:43;97115.56;;;16.07;52.17
30339;BME280;795;49.296;11.348;2023-05-27T06:41:10;97109.22;;;16.14;52.80
30339;BME280;795;49.296;11.348;2023-05-27T06:43:37;97000.44;;;15.81;51.54
30339;BME280;795;49.296;11.348;2023-05-27T06:46:04;97109.91;;;16.81;51.62
30339;BME280;795;49.296;11.348;2023-05-27T06:48:31;97107.94;;;16.90;51.35
30339;BME280;795;49.296;11.348;2023-05-27T06:50:59;97015.25;;;16.00;51.68
30339;BME280;795;49.296;11.348;2023-05-27T06:53:26;97106.59;;;16.65;51.93
30339;BME280;795;49.296;11.348;2023-05-27T06:55:53;97089.97;;;16.89;51.67
30339;BME280;795;49.296;11.348;2023-05-27T06:58:20;97114.44;;;17.10;50.37
30339;BME280;795;49.296;11.348;2023-05-27T07:00:47;97125.22;;;17.24;51.29
30339;BME280;795;49.296;11.348;2023-05-27T07:03:14;97125.03;;;17.68;50.19
30339;BME280;795;49.296;11.348;2023-05-27T07:05:41;97124.56;;;17.58;50.89
30339;BME280;795;49.296;11.348;2023-05-27T07:08:08;97126.59;;;17.56;51.05
30339;BME280;795;49.296;11.348;2023-05-27T07:10:35;97119.69;;;17.54;50.85
30339;BME280;795;49.296;11.348;2023-05-27T07:13:02;97122.56;;;17.73;50.02
30339;BME280;795;49.296;11.348;2023-05-27T07:15:29;97130.41;;;17.62;50.60
30339;BME280;795;49.296;11.348;2023-05-27T07:17:58;97136.69;;;17.41;50.73
30339;BME280;795;49.296;11.348;2023-05-27T07:20:25;97124.13;;;18.10;51.01
30339;BME280;795;49.296;11.348;2023-05-27T07:22:52;97068.44;;;18.00;50.27
30339;BME280;795;49.296;11.348;2023-05-27T07:25:19;97129.06;;;18.28;49.59
30339;BME280;795;49.296;11.348;2023-05-27T07:27:46;97052.03;;;17.80;50.54
30339;BME280;795;49.296;11.348;2023-05-27T07:30:13;97127.28;;;18.82;48.72
30339;BME280;795;49.296;11.348;2023-05-27T07:32:40;97110.16;;;19.01;48.13
30339;BME280;795;49.296;11.348;2023-05-27T07:35:07;97075.47;;;18.56;48.52
30339;BME280;795;49.296;11.348;2023-05-27T07:37:35;97131.03;;;19.35;48.45
30339;BME280;795;49.296;11.348;2023-05-27T07:40:02;97125.66;;;19.68;46.99
30339;BME280;795;49.296;11.348;2023-05-27T07:42:29;97118.72;;;20.11;46.49
30339;BME280;795;49.296;11.348;2023-05-27T07:45:01;97070.75;;;19.45;45.20
30339;BME280;795;49.296;11.348;2023-05-27T07:47:29;97124.81;;;20.00;46.05
30339;BME280;795;49.296;11.348;2023-05-27T07:49:56;97113.91;;;20.07;46.88
30339;BME280;795;49.296;11.348;2023-05-27T07:52:23;97045.97;;;20.25;45.65
30339;BME280;795;49.296;11.348;2023-05-27T07:54:50;97111.78;;;20.35;44.78
30339;BME280;795;49.296;11.348;2023-05-27T07:57:21;97112.59;;;20.48;45.47
30339;BME280;795;49.296;11.348;2023-05-27T07:59:49;97127.03;;;21.26;43.96
30339;BME280;795;49.296;11.348;2023-05-27T08:03:37;96959.16;;;20.02;44.09
30339;BME280;795;49.296;11.348;2023-05-27T08:06:04;97118.69;;;21.08;44.61
30339;BME280;795;49.296;11.348;2023-05-27T08:08:32;97127.31;;;20.98;44.24
30339;BME280;795;49.296;11.348;2023-05-27T08:10:59;96893.75;;;20.02;44.27
30339;BME280;795;49.296;11.348;2023-05-27T08:13:26;96904.53;;;20.97;44.03
30339;BME280;795;49.296;11.348;2023-05-27T08:15:53;97074.44;;;21.62;43.11
30339;BME280;795;49.296;11.348;2023-05-27T08:18:20;97107.19;;;21.68;43.16
30339;BME280;795;49.296;11.348;2023-05-27T08:20:48;97015.56;;;20.72;43.24
30339;BME280;795;49.296;11.348;2023-05-27T08:23:18;97097.38;;;20.79;45.07
30339;BME280;795;49.296;11.348;2023-05-27T08:25:44;97046.84;;;21.14;44.75
30339;BME280;795;49.296;11.348;2023-05-27T08:28:11;97098.38;;;21.66;43.59
30339;BME280;795;49.296;11.348;2023-05-27T08:30:38;96964.50;;;20.41;43.43
30339;BME280;795;49.296;11.348;2023-05-27T08:33:05;97104.91;;;21.34;43.59
30339;BME280;795;49.296;11.348;2023-05-27T08:35:32;97018.13;;;20.54;43.07
30339;BME280;795;49.296;11.348;2023-05-27T08:37:59;97005.47;;;20.73;43.19
30339;BME280;795;49.296;11.348;2023-05-27T08:40:26;97001.91;;;20.72;43.47
30339;BME280;795;49.296;11.348;2023-05-27T08:42:55;97014.91;;;20.19;45.01
30339;BME280;795;49.296;11.348;2023-05-27T08:45:22;97096.19;;;20.68;44.27
30339;BME280;795;49.296;11.348;2023-05-27T08:47:50;97082.47;;;20.81;44.59
30339;BME280;795;49.296;11.348;2023-05-27T08:50:16;97089.38;;;20.84;44.37
30339;BME280;795;49.296;11.348;2023-05-27T08:52:53;97093.81;;;20.85;42.88
30339;BME280;795;49.296;11.348;2023-05-27T08:55:22;97029.91;;;20.55;43.62
30339;BME280;795;49.296;11.348;2023-05-27T08:57:57;97059.81;;;20.74;43.48
30339;BME280;795;49.296;11.348;2023-05-27T09:00:26;97079.63;;;21.07;43.58
30339;BME280;795;49.296;11.348;2023-05-27T09:02:54;97017.91;;;21.62;41.93
30339;BME280;795;49.296;11.348;2023-05-27T09:05:26;97011.88;;;21.78;41.65
30339;BME280;795;49.296;11.348;2023-05-27T09:07:55;97071.06;;;22.16;40.96
30339;BME280;795;49.296;11.348;2023-05-27T09:10:22;97011.38;;;22.97;40.10
30339;BME280;795;49.296;11.348;2023-05-27T09:12:50;97049.91;;;22.66;40.10
30339;BME280;795;49.296;11.348;2023-05-27T09:15:18;97019.50;;;23.03;40.00
30339;BME280;795;49.296;11.348;2023-05-27T09:17:46;97080.06;;;23.85;39.11
30339;BME280;795;49.296;11.348;2023-05-27T09:20:13;97077.91;;;23.98;37.71
30339;BME280;795;49.296;11.348;2023-05-27T09:22:41;97068.59;;;23.05;38.88
30339;BME280;795;49.296;11.348;2023-05-27T09:25:09;97040.06;;;23.24;38.76
30339;BME280;795;49.296;11.348;2023-05-27T09:27:43;97074.28;;;23.51;38.48
30339;BME280;795;49.296;11.348;2023-05-27T09:30:12;97067.41;;;23.84;38.09
30339;BME280;795;49.296;11.348;2023-05-27T09:32:39;97071.44;;;23.81;38.04
30339;BME280;795;49.296;11.348;2023-05-27T09:35:11;97010.19;;;23.87;36.39
30339;BME280;795;49.296;11.348;2023-05-27T09:37:38;97014.75;;;24.16;34.71
30339;BME280;795;49.296;11.348;2023-05-27T09:40:10;97066.47;;;25.22;36.02
30339;BME280;795;49.296;11.348;2023-05-27T09:42:50;97049.47;;;25.25;35.11
30339;BME280;795;49.296;11.348;2023-05-27T09:45:20;97070.09;;;25.39;35.04
30339;BME280;795;49.296;11.348;2023-05-27T09:47:53;97067.28;;;24.83;36.19
30339;BME280;795;49.296;11.348;2023-05-27T09:50:22;97070.91;;;25.68;35.26
30339;BME280;795;49.296;11.348;2023-05-27T09:52:49;96995.03;;;24.42;35.38
30339;BME280;795;49.296;11.348;2023-05-27T09:55:36;97056.13;;;24.50;35.46
30339;BME280;795;49.296;11.348;2023-05-27T09:58:03;97004.31;;;24.53;35.38
30339;BME280;795;49.296;11.348;2023-05-27T10:00:33;97049.81;;;24.37;35.44
30339;BME280;795;49.296;11.348;2023-05-27T10:03:01;97008.50;;;23.63;37.02
30339;BME280;795;49.296;11.348;2023-05-27T10:05:29;97044.31;;;24.03;36.46
30339;BME280;795;49.296;11.348;2023-05-27T10:07:57;97045.63;;;24.00;36.05
30339;BME280;795;49.296;11.348;2023-05-27T10:10:40;96979.41;;;23.50;37.58
30339;BME280;795;49.296;11.348;2023-05-27T10:13:09;96989.19;;;23.28;37.06
30339;BME280;795;49.296;11.348;2023-05-27T10:15:36;97035.66;;;23.64;37.52
30339;BME280;795;49.296;11.348;2023-05-27T10:18:07;96991.38;;;24.14;35.77
30339;BME280;795;49.296;11.348;2023-05-27T10:20:42;96970.72;;;24.23;38.29
30339;BME280;795;49.296;11.348;2023-05-27T10:23:21;97017.06;;;23.66;36.07
30339;BME280;795;49.296;11.348;2023-05-27T10:26:07;97020.44;;;22.97;37.78
30339;BME280;795;49.296;11.348;2023-05-27T10:28:39;97013.13;;;23.51;37.91
30339;BME280;795;49.296;11.348;2023-05-27T10:31:18;97019.03;;;24.24;36.03
30339;BME280;795;49.296;11.348;2023-05-27T10:33:48;97029.41;;;25.53;35.05
30339;BME280;795;49.296;11.348;2023-05-27T10:36:24;97037.25;;;25.04;34.60
30339;BME280;795;49.296;11.348;2023-05-27T10:39:02;97021.94;;;25.65;33.50
30339;BME280;795;49.296;11.348;2023-05-27T10:41:51;97024.69;;;25.37;33.32
30339;BME280;795;49.296;11.348;2023-05-27T10:44:32;97015.41;;;25.54;34.37
30339;BME280;795;49.296;11.348;2023-05-27T10:47:12;97013.91;;;24.16;35.87
30339;BME280;795;49.296;11.348;2023-05-27T10:49:46;97013.50;;;24.01;35.15
30339;BME280;795;49.296;11.348;2023-05-27T10:52:17;97017.34;;;24.23;35.69
30339;BME280;795;49.296;11.348;2023-05-27T10:54:47;97009.88;;;25.10;34.61
30339;BME280;795;49.296;11.348;2023-05-27T10:57:15;96952.28;;;25.98;33.86
30339;BME280;795;49.296;11.348;2023-05-27T10:59:49;96940.00;;;26.87;32.10
30339;BME280;795;49.296;11.348;2023-05-27T11:02:17;97006.00;;;26.00;32.27
30339;BME280;795;49.296;11.348;2023-05-27T11:04:45;97004.38;;;26.38;31.85
30339;BME280;795;49.296;11.348;2023-05-27T11:07:18;96985.31;;;26.14;32.49
30339;BME280;795;49.296;11.348;2023-05-27T11:09:54;97013.41;;;26.16;32.57
30339;BME280;795;49.296;11.348;2023-05-27T11:12:24;97005.13;;;26.71;30.42
30339;BME280;795;49.296;11.348;2023-05-27T11:14:55;96968.69;;;26.86;31.21
30339;BME280;795;49.296;11.348;2023-05-27T11:17:24;97012.53;;;27.14;30.27
30339;BME280;795;49.296;11.348;2023-05-27T11:19:53;96934.25;;;26.45;30.76
30339;BME280;795;49.296;11.348;2023-05-27T11:22:21;96983.31;;;26.48;30.84
30339;BME280;795;49.296;11.348;2023-05-27T11:25:01;96995.81;;;26.99;30.94
30339;BME280;795;49.296;11.348;2023-05-27T11:27:38;96980.78;;;27.97;28.63
30339;BME280;795;49.296;11.348;2023-05-27T11:30:12;96925.94;;;27.10;28.74
30339;BME280;795;49.296;11.348;2023-05-27T11:32:41;96990.34;;;27.52;28.66
30339;BME280;795;49.296;11.348;2023-05-27T11:35:19;96928.06;;;28.40;27.71
30339;BME280;795;49.296;11.348;2023-05-27T11:37:50;96936.34;;;27.03;28.65
30339;BME280;795;49.296;11.348;2023-05-27T11:40:21;96983.25;;;26.86;28.89
30339;BME280;795;49.296;11.348;2023-05-27T11:42:49;96972.41;;;27.02;28.57
30339;BME280;795;49.296;11.348;2023-05-27T11:45:19;96967.97;;;27.49;28.37
30339;BME280;795;49.296;11.348;2023-05-27T11:47:47;96965.06;;;28.96;26.72
30339;BME280;795;49.296;11.348;2023-05-27T11:50:20;96937.75;;;26.79;29.77
30339;BME280;795;49.296;11.348;2023-05-27T11:52:55;96962.03;;;26.65;30.37
30339;BME280;795;49.296;11.348;2023-05-27T11:55:23;96971.16;;;26.44;29.60
30339;BME280;795;49.296;11.348;2023-05-27T11:57:50;96958.78;;;28.54;28.47
30339;BME280;795;49.296;11.348;2023-05-27T12:00:18;96948.56;;;27.39;27.31
30339;BME280;795;49.296;11.348;2023-05-27T12:02:46;96923.06;;;26.52;27.83
30339;BME280;795;49.296;11.348;2023-05-27T12:05:14;96916.50;;;26.14;29.64
30339;BME280;795;49.296;11.348;2023-05-27T12:08:00;96943.78;;;25.99;29.51
30339;BME280;795;49.296;11.348;2023-05-27T12:10:27;96923.88;;;25.92;29.96
30339;BME280;795;49.296;11.348;2023-05-27T12:13:03;96922.03;;;25.98;28.85
30339;BME280;795;49.296;11.348;2023-05-27T12:15:31;96876.13;;;25.82;29.10
30339;BME280;795;49.296;11.348;2023-05-27T12:17:59;96896.09;;;27.02;27.98
30339;BME280;795;49.296;11.348;2023-05-27T12:20:26;96906.81;;;27.99;26.93
30339;BME280;795;49.296;11.348;2023-05-27T12:22:55;96931.88;;;28.96;26.70
30339;BME280;795;49.296;11.348;2023-05-27T12:25:22;96911.81;;;27.33;27.28
30339;BME280;795;49.296;11.348;2023-05-27T12:27:49;96918.44;;;26.79;26.90
30339;BME280;795;49.296;11.348;2023-05-27T12:30:16;96916.06;;;26.66;27.12
30339;BME280;795;49.296;11.348;2023-05-27T12:32:43;96918.63;;;26.51;27.17
30339;BME280;795;49.296;11.348;2023-05-27T12:35:10;96903.53;;;26.31;28.78
30339;BME280;795;49.296;11.348;2023-05-27T12:37:38;96841.91;;;25.94;28.88
30339;BME280;795;49.296;11.348;2023-05-27T12:40:07;96908.47;;;26.29;29.13
30339;BME280;795;49.296;11.348;2023-05-27T12:42:36;96905.47;;;26.79;27.22
30339;BME280;795;49.296;11.348;2023-05-27T12:45:04;96906.81;;;27.62;28.08
30339;BME280;795;49.296;11.348;2023-05-27T12:47:31;96903.03;;;27.68;26.00
30339;BME280;795;49.296;11.348;2023-05-27T12:49:57;96845.16;;;27.10;26.67
30339;BME280;795;49.296;11.348;2023-05-27T12:52:24;96900.97;;;29.24;25.58
30339;BME280;795;49.296;11.348;2023-05-27T12:54:52;96905.69;;;29.89;23.96
30339;BME280;795;49.296;11.348;2023-05-27T12:57:19;96871.28;;;28.74;25.32
30339;BME280;795;49.296;11.348;2023-05-27T12:59:46;96848.69;;;27.74;24.69
30339;BME280;795;49.296;11.348;2023-05-27T13:02:13;96854.34;;;28.46;26.13
30339;BME280;795;49.296;11.348;2023-05-27T13:04:40;96891.81;;;28.99;24.83
30339;BME280;795;49.296;11.348;2023-05-27T13:07:11;96884.84;;;28.81;23.99
30339;BME280;795;49.296;11.348;2023-05-27T13:09:40;96881.56;;;28.22;24.34
30339;BME280;795;49.296;11.348;2023-05-27T13:12:07;96837.78;;;27.94;25.56
30339;BME280;795;49.296;11.348;2023-05-27T13:14:34;96847.34;;;26.76;26.29
30339;BME280;795;49.296;11.348;2023-05-27T13:17:01;96864.44;;;26.56;25.49
30339;BME280;795;49.296;11.348;2023-05-27T13:19:29;96871.41;;;27.44;25.91
30339;BME280;795;49.296;11.348;2023-05-27T13:21:56;96825.78;;;26.46;26.80
30339;BME280;795;49.296;11.348;2023-05-27T13:24:23;96831.94;;;26.10;26.29